Time;durP1;ratioP1;P1;durP2;ratioP2;P2;SDS_P1;SDS_P2;PMS_P1;PMS_P2;Temp;Humidity;BMP_temperature;BMP_pressure;BME280_temperature;BME280_humidity;BME280_pressure;Samples;Min_cycle;Max_cycle;Signal;HPM_P1;HPM_P2
2023/10/11 00:00:34;;;;;;;15.05;7.70;;;;;;;;;;5071025;28;20197;-71
2023/10/11 00:03:05;;;;;;;16.55;7.38;;;;;;;;;;5071158;28;20291;-71
2023/10/11 00:05:36;;;;;;;14.43;7.63;;;;;;;;;;5071174;28;20220;-71
2023/10/11 00:08:04;;;;;;;14.60;7.72;;;;;;;;;;5071048;28;20208;-71
2023/10/11 00:10:31;;;;;;;21.08;8.32;;;;;;;;;;5071072;28;20287;-71
2023/10/11 00:12:58;;;;;;;17.23;8.05;;;;;;;;;;5071242;28;20210;-71
2023/10/11 00:15:26;;;;;;;14.27;7.90;;;;;;;;;;5062769;28;20684;-71
2023/10/11 00:17:52;;;;;;;15.88;8.20;;;;;;;;;;5071035;28;20640;-71
2023/10/11 00:20:28;;;;;;;15.38;7.55;;;;;;;;;;5070675;28;20208;-71
2023/10/11 00:22:54;;;;;;;15.68;8.10;;;;;;;;;;5071413;28;20299;-71
2023/10/11 00:25:24;;;;;;;15.07;7.50;;;;;;;;;;5070906;28;20213;-71
2023/10/11 00:27:50;;;;;;;13.38;7.65;;;;;;;;;;5071063;28;20232;-71
2023/10/11 00:30:17;;;;;;;14.38;7.78;;;;;;;;;;5070626;28;20205;-71
2023/10/11 00:32:45;;;;;;;16.15;8.55;;;;;;;;;;5074255;28;20661;-71
2023/10/11 00:35:18;;;;;;;16.05;8.02;;;;;;;;;;5074404;28;20700;-71
2023/10/11 00:37:47;;;;;;;20.23;8.40;;;;;;;;;;5075046;28;20231;-71
2023/10/11 00:40:14;;;;;;;17.85;8.85;;;;;;;;;;5074524;28;20208;-71
2023/10/11 00:42:40;;;;;;;20.35;8.30;;;;;;;;;;5074755;28;20200;-71
2023/10/11 00:45:09;;;;;;;17.35;7.57;;;;;;;;;;5074255;28;20201;-71
2023/10/11 00:47:40;;;;;;;15.15;7.32;;;;;;;;;;5074467;28;20300;-71
2023/10/11 00:50:07;;;;;;;14.95;7.85;;;;;;;;;;5073936;28;20592;-71
2023/10/11 00:52:34;;;;;;;16.48;7.88;;;;;;;;;;5074560;28;20205;-71
2023/10/11 00:55:08;;;;;;;17.08;8.35;;;;;;;;;;5074279;28;20925;-71
2023/10/11 00:57:36;;;;;;;17.75;8.70;;;;;;;;;;5074392;28;20199;-71
2023/10/11 01:00:04;;;;;;;16.15;8.82;;;;;;;;;;5073940;28;20205;-71
2023/10/11 01:02:31;;;;;;;16.98;8.40;;;;;;;;;;5066630;28;20216;-71
2023/10/11 01:04:58;;;;;;;21.27;8.55;;;;;;;;;;5074338;28;20196;-71
2023/10/11 01:07:25;;;;;;;15.95;8.30;;;;;;;;;;5074231;28;20439;-71
2023/10/11 01:09:51;;;;;;;17.65;8.18;;;;;;;;;;5073897;28;20266;-71
2023/10/11 01:12:19;;;;;;;18.73;8.25;;;;;;;;;;5074365;28;20192;-71
2023/10/11 01:14:58;;;;;;;14.95;7.72;;;;;;;;;;5074016;28;20279;-71
2023/10/11 01:17:25;;;;;;;20.80;7.30;;;;;;;;;;5074099;28;20250;-71
2023/10/11 01:19:52;;;;;;;17.52;8.35;;;;;;;;;;5073981;28;20250;-71
2023/10/11 01:22:19;;;;;;;14.95;8.15;;;;;;;;;;5073843;28;20208;-71
2023/10/11 01:24:47;;;;;;;21.17;8.80;;;;;;;;;;5073895;28;20197;-71
2023/10/11 01:27:14;;;;;;;20.02;7.97;;;;;;;;;;5073582;28;20216;-71
2023/10/11 01:29:40;;;;;;;17.27;8.43;;;;;;;;;;5073776;28;20220;-71
2023/10/11 01:32:07;;;;;;;16.08;7.97;;;;;;;;;;5073766;28;20197;-71
2023/10/11 01:34:33;;;;;;;17.98;7.82;;;;;;;;;;5073820;28;20235;-71
2023/10/11 01:36:59;;;;;;;16.38;8.05;;;;;;;;;;5073843;28;20216;-71
2023/10/11 01:39:28;;;;;;;15.23;7.57;;;;;;;;;;5073363;28;20205;-71
2023/10/11 01:41:58;;;;;;;11.60;6.97;;;;;;;;;;5073366;28;20577;-71
2023/10/11 01:44:24;;;;;;;13.68;7.38;;;;;;;;;;5073735;28;20196;-70
2023/10/11 01:46:51;;;;;;;18.27;7.53;;;;;;;;;;5073679;28;20253;-71
2023/10/11 01:49:17;;;;;;;16.08;7.72;;;;;;;;;;5073227;28;20580;-71
2023/10/11 01:51:46;;;;;;;14.77;7.72;;;;;;;;;;5073377;28;20208;-71
2023/10/11 01:54:15;;;;;;;18.52;8.13;;;;;;;;;;5073188;28;20212;-71
2023/10/11 01:56:42;;;;;;;13.85;8.05;;;;;;;;;;5073363;28;20274;-71
2023/10/11 01:59:12;;;;;;;15.00;8.13;;;;;;;;;;5073080;28;20665;-71
2023/10/11 02:01:39;;;;;;;17.25;7.50;;;;;;;;;;5073466;28;20220;-71
2023/10/11 02:04:10;;;;;;;16.10;7.72;;;;;;;;;;5073275;28;20220;-71
2023/10/11 02:06:38;;;;;;;19.30;8.00;;;;;;;;;;5065008;28;20212;-71
2023/10/11 02:09:05;;;;;;;20.40;8.48;;;;;;;;;;5072896;28;20197;-71
2023/10/11 02:11:31;;;;;;;16.33;8.77;;;;;;;;;;5072881;28;20197;-71
2023/10/11 02:13:59;;;;;;;17.05;7.55;;;;;;;;;;5073076;28;20218;-71
2023/10/11 02:16:25;;;;;;;13.60;8.25;;;;;;;;;;5072536;28;20216;-71
2023/10/11 02:18:58;;;;;;;17.33;7.68;;;;;;;;;;5072551;28;20570;-71
2023/10/11 02:21:24;;;;;;;15.13;7.70;;;;;;;;;;5072243;28;20200;-71
2023/10/11 02:23:51;;;;;;;15.45;7.93;;;;;;;;;;5072633;28;20202;-71
2023/10/11 02:26:17;;;;;;;16.23;8.10;;;;;;;;;;5071751;28;20220;-71
2023/10/11 02:28:44;;;;;;;13.35;8.30;;;;;;;;;;5072755;28;20200;-71
2023/10/11 02:31:13;;;;;;;16.92;7.57;;;;;;;;;;5069298;28;20193;-71
2023/10/11 02:33:39;;;;;;;14.40;7.57;;;;;;;;;;5061707;28;20220;-71
2023/10/11 02:36:09;;;;;;;14.60;7.53;;;;;;;;;;5068992;28;20220;-71
2023/10/11 02:38:38;;;;;;;14.23;7.80;;;;;;;;;;5069436;28;20200;-71
2023/10/11 02:41:05;;;;;;;15.55;8.32;;;;;;;;;;5069243;28;20200;-74
2023/10/11 02:43:33;;;;;;;12.95;7.80;;;;;;;;;;5069401;28;20687;-70
2023/10/11 02:46:02;;;;;;;14.32;7.78;;;;;;;;;;5071560;28;20297;-71
2023/10/11 02:48:30;;;;;;;20.23;8.98;;;;;;;;;;5071749;28;20205;-71
2023/10/11 02:50:58;;;;;;;21.35;8.77;;;;;;;;;;5071863;28;20711;-70
2023/10/11 02:53:25;;;;;;;15.32;8.63;;;;;;;;;;5071996;28;20309;-71
2023/10/11 02:55:59;;;;;;;21.55;9.02;;;;;;;;;;5071178;28;20220;-71
2023/10/11 02:58:26;;;;;;;21.38;9.57;;;;;;;;;;5071907;28;20207;-71
2023/10/11 03:00:56;;;;;;;18.38;8.75;;;;;;;;;;5071764;28;20204;-71
2023/10/11 03:03:23;;;;;;;18.73;7.93;;;;;;;;;;5071817;28;20200;-71
2023/10/11 03:05:51;;;;;;;17.08;8.88;;;;;;;;;;5071887;28;20208;-71
2023/10/11 03:08:19;;;;;;;18.98;9.18;;;;;;;;;;5071737;28;20197;-71
2023/10/11 03:10:53;;;;;;;21.08;9.82;;;;;;;;;;5071703;28;20242;-71
2023/10/11 03:13:24;;;;;;;22.30;9.43;;;;;;;;;;5071620;28;20252;-71
2023/10/11 03:15:54;;;;;;;20.98;9.35;;;;;;;;;;5071797;28;20219;-71
2023/10/11 03:18:22;;;;;;;16.73;8.65;;;;;;;;;;5071691;28;20196;-71
2023/10/11 03:20:50;;;;;;;21.15;9.27;;;;;;;;;;5071503;28;20200;-71
2023/10/11 03:23:21;;;;;;;18.70;9.15;;;;;;;;;;5071588;28;20197;-72
2023/10/11 03:25:49;;;;;;;18.65;9.25;;;;;;;;;;5063900;28;20700;-71
2023/10/11 03:28:25;;;;;;;23.60;9.60;;;;;;;;;;5071407;28;20201;-71
2023/10/11 03:30:52;;;;;;;26.05;9.10;;;;;;;;;;5071557;28;20200;-71
2023/10/11 03:33:18;;;;;;;22.48;9.20;;;;;;;;;;5071500;28;20196;-71
2023/10/11 03:35:45;;;;;;;25.65;10.18;;;;;;;;;;5071298;28;20247;-71
2023/10/11 03:38:17;;;;;;;17.55;9.38;;;;;;;;;;5071295;28;20669;-71
2023/10/11 03:41:14;;;;;;;22.63;9.88;;;;;;;;;;5062799;28;20204;-72
2023/10/11 03:43:41;;;;;;;17.40;9.30;;;;;;;;;;5071429;28;20203;-71
2023/10/11 03:46:09;;;;;;;22.23;9.30;;;;;;;;;;5071160;28;20604;-72
2023/10/11 03:48:44;;;;;;;20.38;9.45;;;;;;;;;;5070913;28;20680;-70
2023/10/11 03:51:10;;;;;;;19.40;8.35;;;;;;;;;;5071164;28;20200;-71
2023/10/11 03:53:39;;;;;;;20.23;8.55;;;;;;;;;;5071011;28;20584;-71
2023/10/11 03:56:07;;;;;;;20.80;8.75;;;;;;;;;;5071231;28;20220;-71
2023/10/11 03:58:37;;;;;;;18.40;9.00;;;;;;;;;;5071078;28;20584;-71
2023/10/11 04:01:11;;;;;;;18.50;8.68;;;;;;;;;;5071063;28;20290;-71
2023/10/11 04:03:39;;;;;;;20.13;9.48;;;;;;;;;;5071424;28;20204;-71
2023/10/11 04:06:13;;;;;;;17.20;9.30;;;;;;;;;;5072809;28;20704;-71
2023/10/11 04:08:41;;;;;;;17.17;9.45;;;;;;;;;;5075061;28;20670;-71
2023/10/11 04:11:18;;;;;;;17.77;8.20;;;;;;;;;;5075489;28;20200;-71
2023/10/11 04:13:46;;;;;;;20.33;8.80;;;;;;;;;;5075090;28;20192;-71
2023/10/11 04:16:13;;;;;;;23.58;9.30;;;;;;;;;;5074839;28;20213;-71
2023/10/11 04:18:39;;;;;;;21.30;9.30;;;;;;;;;;5074886;28;20618;-71
2023/10/11 04:21:36;;;;;;;21.55;9.05;;;;;;;;;;5074890;28;20207;-71
2023/10/11 04:24:06;;;;;;;17.95;9.18;;;;;;;;;;5068892;28;20278;-71
2023/10/11 04:26:36;;;;;;;22.20;9.70;;;;;;;;;;5074487;28;20303;-71
2023/10/11 04:29:06;;;;;;;24.10;8.85;;;;;;;;;;5075203;28;20193;-71
2023/10/11 04:31:36;;;;;;;22.38;9.45;;;;;;;;;;5074676;28;20239;-71
2023/10/11 04:34:11;;;;;;;22.52;9.38;;;;;;;;;;5074905;28;20279;-71
2023/10/11 04:36:42;;;;;;;19.67;9.60;;;;;;;;;;5074655;28;20224;-71
2023/10/11 04:39:15;;;;;;;20.98;8.77;;;;;;;;;;5074449;28;20258;-70
2023/10/11 04:41:49;;;;;;;18.77;8.90;;;;;;;;;;5074213;28;20722;-71
2023/10/11 04:44:17;;;;;;;20.38;8.52;;;;;;;;;;5074548;28;20258;-71
2023/10/11 04:46:44;;;;;;;20.73;9.50;;;;;;;;;;5074265;28;20303;-71
2023/10/11 04:49:18;;;;;;;18.85;9.18;;;;;;;;;;5074249;28;20620;-70
2023/10/11 04:51:46;;;;;;;18.85;8.55;;;;;;;;;;5074538;28;20204;-70
2023/10/11 04:54:14;;;;;;;17.40;8.30;;;;;;;;;;5074877;28;20197;-71
2023/10/11 04:56:51;;;;;;;17.20;8.48;;;;;;;;;;5074266;28;20263;-71
2023/10/11 04:59:27;;;;;;;13.65;7.97;;;;;;;;;;5074533;28;20196;-71
2023/10/11 05:02:08;;;;;;;19.63;9.40;;;;;;;;;;5066582;28;20661;-71
2023/10/11 05:04:34;;;;;;;17.65;9.27;;;;;;;;;;5074420;28;20200;-70
2023/10/11 05:07:07;;;;;;;21.23;9.00;;;;;;;;;;5074032;28;20218;-70
2023/10/11 05:09:38;;;;;;;17.15;8.40;;;;;;;;;;5073413;28;20208;-70
2023/10/11 05:12:09;;;;;;;16.20;8.23;;;;;;;;;;5073867;28;20224;-70
2023/10/11 05:14:39;;;;;;;15.88;8.07;;;;;;;;;;5074398;28;20573;-71
2023/10/11 05:17:31;;;;;;;17.60;8.15;;;;;;;;;;5073400;28;20273;-64
2023/10/11 05:20:20;;;;;;;11.93;7.88;;;;;;;;;;5066346;28;20196;-64
2023/10/11 05:22:49;;;;;;;25.83;9.15;;;;;;;;;;5073650;28;20223;-64
2023/10/11 05:25:37;;;;;;;16.15;8.82;;;;;;;;;;5073894;28;20282;-64
2023/10/11 05:28:08;;;;;;;22.58;8.35;;;;;;;;;;5066901;28;20228;-65
2023/10/11 05:30:35;;;;;;;21.70;8.38;;;;;;;;;;5073555;28;20443;-63
2023/10/11 05:33:30;;;;;;;19.27;8.63;;;;;;;;;;5073588;28;20200;-64
2023/10/11 05:36:14;;;;;;;16.67;8.52;;;;;;;;;;5065989;28;20481;-64
2023/10/11 05:52:25;;;;;;;19.25;8.88;;;;;;;;;;5073609;28;20213;-64
2023/10/11 05:54:52;;;;;;;21.00;8.70;;;;;;;;;;5073089;28;20209;-64
2023/10/11 05:57:19;;;;;;;18.77;8.93;;;;;;;;;;5073161;28;20338;-64
2023/10/11 05:59:47;;;;;;;20.63;9.65;;;;;;;;;;5072951;28;20208;-65
2023/10/11 06:02:18;;;;;;;19.67;9.65;;;;;;;;;;5066706;28;20240;-65
2023/10/11 06:04:45;;;;;;;25.13;9.55;;;;;;;;;;5056183;28;20666;-65
2023/10/11 06:07:13;;;;;;;23.58;9.77;;;;;;;;;;5066927;28;20217;-65
2023/10/11 06:09:43;;;;;;;29.67;10.50;;;;;;;;;;5066854;28;20580;-64
2023/10/11 06:12:22;;;;;;;23.23;9.57;;;;;;;;;;5067563;28;20250;-64
2023/10/11 06:14:50;;;;;;;22.70;10.35;;;;;;;;;;5066911;28;20212;-64
2023/10/11 06:17:21;;;;;;;23.30;8.95;;;;;;;;;;5067372;28;20220;-65
2023/10/11 06:19:53;;;;;;;23.50;10.27;;;;;;;;;;5066817;28;20212;-66
2023/10/11 06:22:21;;;;;;;18.08;9.63;;;;;;;;;;5064172;28;20684;-63
2023/10/11 06:24:48;;;;;;;27.00;9.88;;;;;;;;;;5063599;28;20204;-64
2023/10/11 06:29:55;;;;;;;16.38;8.95;;;;;;;;;;5064073;28;20287;-64
2023/10/11 06:32:22;;;;;;;22.88;9.55;;;;;;;;;;5065787;28;20196;-64
2023/10/11 06:34:50;;;;;;;23.48;8.90;;;;;;;;;;5065685;28;20208;-64
2023/10/11 06:37:19;;;;;;;21.20;9.10;;;;;;;;;;5065188;28;20220;-65
2023/10/11 06:42:31;;;;;;;28.80;9.40;;;;;;;;;;5065174;28;20211;-64
2023/10/11 06:44:59;;;;;;;20.58;9.85;;;;;;;;;;5065335;28;20492;-64
2023/10/11 06:47:27;;;;;;;23.67;10.88;;;;;;;;;;5065530;28;20228;-64
2023/10/11 06:49:55;;;;;;;21.17;10.93;;;;;;;;;;5064525;28;20592;-64
2023/10/11 06:52:25;;;;;;;25.58;10.48;;;;;;;;;;5064148;28;20369;-64
2023/10/11 06:55:07;;;;;;;24.83;10.75;;;;;;;;;;5064295;28;20208;-65
2023/10/11 06:57:38;;;;;;;33.88;11.32;;;;;;;;;;5064520;28;20306;-62
2023/10/11 07:00:12;;;;;;;21.48;10.45;;;;;;;;;;5062087;28;20266;-64
2023/10/11 07:02:47;;;;;;;25.20;11.20;;;;;;;;;;5064854;28;20215;-64
2023/10/11 07:05:17;;;;;;;24.25;11.40;;;;;;;;;;5063924;28;20769;-65
2023/10/11 07:07:47;;;;;;;22.70;11.52;;;;;;;;;;5064068;28;20213;-66
2023/10/11 07:10:28;;;;;;;28.58;11.30;;;;;;;;;;5063597;28;20232;-66
2023/10/11 07:13:03;;;;;;;25.77;10.95;;;;;;;;;;5064285;28;20261;-65
2023/10/11 07:15:31;;;;;;;22.20;11.40;;;;;;;;;;5064515;28;20230;-65
2023/10/11 07:17:58;;;;;;;39.38;11.68;;;;;;;;;;5064065;28;20240;-65
2023/10/11 07:20:47;;;;;;;26.17;11.02;;;;;;;;;;5063985;28;20243;-65
2023/10/11 07:23:18;;;;;;;17.05;9.57;;;;;;;;;;5062296;28;20254;-65
2023/10/11 07:25:45;;;;;;;22.88;10.20;;;;;;;;;;5063557;28;20318;-65
2023/10/11 07:28:14;;;;;;;21.73;9.70;;;;;;;;;;5064077;28;20309;-65
2023/10/11 07:30:40;;;;;;;21.38;9.35;;;;;;;;;;5064024;28;20212;-64
2023/10/11 07:33:11;;;;;;;21.98;9.85;;;;;;;;;;5056910;28;21274;-64
2023/10/11 07:35:43;;;;;;;16.92;9.35;;;;;;;;;;5064409;28;20248;-64
2023/10/11 07:38:10;;;;;;;17.17;8.73;;;;;;;;;;5058065;28;20295;-65
2023/10/11 07:40:45;;;;;;;22.15;9.18;;;;;;;;;;5063003;28;20569;-65
2023/10/11 07:43:15;;;;;;;20.85;8.38;;;;;;;;;;5056718;28;20204;-65
2023/10/11 07:45:47;;;;;;;18.50;9.32;;;;;;;;;;5061556;28;20261;-65
2023/10/11 07:48:14;;;;;;;15.93;7.93;;;;;;;;;;5056832;28;20204;-65
2023/10/11 07:50:42;;;;;;;14.80;8.73;;;;;;;;;;5062039;28;20212;-65
2023/10/11 07:53:13;;;;;;;19.95;9.20;;;;;;;;;;5061893;28;20208;-65
2023/10/11 07:55:40;;;;;;;18.30;8.68;;;;;;;;;;5061838;28;20600;-64
2023/10/11 07:58:08;;;;;;;18.88;7.93;;;;;;;;;;5061951;28;20212;-64
2023/10/11 08:00:40;;;;;;;24.08;9.40;;;;;;;;;;5061661;28;20219;-64
2023/10/11 08:03:08;;;;;;;21.30;8.85;;;;;;;;;;5062248;28;20208;-65
2023/10/11 08:05:36;;;;;;;18.60;8.27;;;;;;;;;;5062748;28;20224;-65
2023/10/11 08:08:05;;;;;;;19.70;7.65;;;;;;;;;;5061683;28;20212;-65
2023/10/11 08:10:33;;;;;;;14.25;8.25;;;;;;;;;;5061817;28;20279;-65
2023/10/11 08:13:00;;;;;;;16.42;8.40;;;;;;;;;;5061446;28;20214;-65
2023/10/11 08:15:26;;;;;;;14.85;8.10;;;;;;;;;;5061337;28;20227;-65
2023/10/11 08:17:53;;;;;;;16.98;8.07;;;;;;;;;;5061366;28;20715;-65
2023/10/11 08:20:19;;;;;;;18.58;7.93;;;;;;;;;;5061570;28;20228;-65
2023/10/11 08:22:47;;;;;;;15.05;7.72;;;;;;;;;;5061661;28;20731;-65
2023/10/11 08:25:13;;;;;;;18.40;7.63;;;;;;;;;;5061554;28;20220;-65
2023/10/11 08:27:41;;;;;;;26.23;8.10;;;;;;;;;;5061083;28;20673;-65
2023/10/11 08:30:09;;;;;;;16.88;7.18;;;;;;;;;;5061475;28;20559;-65
2023/10/11 08:32:37;;;;;;;17.48;7.35;;;;;;;;;;5061409;28;20680;-65
2023/10/11 08:35:05;;;;;;;14.77;6.60;;;;;;;;;;5061941;28;20623;-65
2023/10/11 08:37:32;;;;;;;13.75;6.60;;;;;;;;;;5062687;28;20281;-65
2023/10/11 08:40:01;;;;;;;14.45;7.68;;;;;;;;;;5063429;28;20716;-65
2023/10/11 08:42:30;;;;;;;13.57;6.32;;;;;;;;;;5062883;28;20239;-65
2023/10/11 08:45:00;;;;;;;12.20;6.35;;;;;;;;;;5062170;28;20778;-65
2023/10/11 08:47:29;;;;;;;14.30;6.40;;;;;;;;;;5061791;28;20204;-65
2023/10/11 08:49:55;;;;;;;21.33;7.45;;;;;;;;;;5062067;28;20220;-65
2023/10/11 08:52:23;;;;;;;14.70;6.15;;;;;;;;;;5062072;28;20708;-65
2023/10/11 08:57:54;;;;;;;14.52;6.68;;;;;;;;;;5057873;28;20651;-65
2023/10/11 09:00:29;;;;;;;13.05;6.30;;;;;;;;;;5065385;28;20810;-65
2023/10/11 09:02:55;;;;;;;18.88;6.20;;;;;;;;;;5065133;28;20298;-65
2023/10/11 09:05:29;;;;;;;15.07;6.50;;;;;;;;;;5065370;28;20748;-65
2023/10/11 09:07:55;;;;;;;16.98;6.90;;;;;;;;;;5065163;28;20754;-65
2023/10/11 09:10:24;;;;;;;19.17;6.63;;;;;;;;;;5064545;28;20208;-65
2023/10/11 09:12:56;;;;;;;18.92;6.90;;;;;;;;;;5064002;28;20200;-65
2023/10/11 09:15:24;;;;;;;18.58;6.72;;;;;;;;;;5065010;28;20776;-65
2023/10/11 09:17:51;;;;;;;13.75;6.68;;;;;;;;;;5064292;28;20248;-65
2023/10/11 09:20:23;;;;;;;16.08;6.47;;;;;;;;;;5057497;28;20292;-65
2023/10/11 09:22:52;;;;;;;15.55;7.05;;;;;;;;;;5064447;28;20205;-65
2023/10/11 09:25:23;;;;;;;20.23;6.93;;;;;;;;;;5057303;28;20220;-66
2023/10/11 09:27:50;;;;;;;13.25;6.20;;;;;;;;;;5064030;28;20208;-65
2023/10/11 09:30:20;;;;;;;11.32;5.38;;;;;;;;;;5058511;28;20612;-65
2023/10/11 09:32:51;;;;;;;17.35;6.20;;;;;;;;;;5064229;28;20427;-65
2023/10/11 09:35:27;;;;;;;17.38;6.22;;;;;;;;;;5056537;28;20232;-65
2023/10/11 09:37:54;;;;;;;16.25;6.30;;;;;;;;;;5063953;28;20950;-65
2023/10/11 09:40:26;;;;;;;24.00;6.20;;;;;;;;;;5063843;28;20669;-65
2023/10/11 09:42:52;;;;;;;19.60;6.50;;;;;;;;;;5064578;28;20235;-65
2023/10/11 09:45:19;;;;;;;13.55;5.93;;;;;;;;;;5060473;28;20227;-65
2023/10/11 09:47:54;;;;;;;18.42;6.30;;;;;;;;;;5064600;28;20200;-65
2023/10/11 09:50:22;;;;;;;20.77;6.25;;;;;;;;;;5056904;28;20698;-65
2023/10/11 09:52:49;;;;;;;17.73;5.88;;;;;;;;;;5064445;28;20209;-65
2023/10/11 09:55:19;;;;;;;14.60;5.38;;;;;;;;;;5064026;28;20232;-65
2023/10/11 09:57:51;;;;;;;15.77;4.97;;;;;;;;;;5064016;28;20270;-65
2023/10/11 10:00:25;;;;;;;21.88;6.07;;;;;;;;;;5063684;28;20236;-65
2023/10/11 10:02:52;;;;;;;13.88;5.18;;;;;;;;;;5064941;28;20211;-65
2023/10/11 10:05:22;;;;;;;14.50;5.45;;;;;;;;;;5064359;28;20775;-65
2023/10/11 10:07:51;;;;;;;13.18;5.72;;;;;;;;;;5064096;28;20303;-65
2023/10/11 10:10:25;;;;;;;13.05;5.45;;;;;;;;;;5063956;28;20235;-65
2023/10/11 10:12:57;;;;;;;20.50;6.32;;;;;;;;;;5064115;28;20836;-65
2023/10/11 10:15:24;;;;;;;19.35;5.78;;;;;;;;;;5059664;28;20247;-66
2023/10/11 10:18:12;;;;;;;14.95;5.30;;;;;;;;;;5063592;28;20672;-66
2023/10/11 10:20:42;;;;;;;16.73;5.55;;;;;;;;;;5058403;28;20233;-66
2023/10/11 10:23:30;;;;;;;12.75;5.45;;;;;;;;;;5063706;28;20622;-66
2023/10/11 10:26:12;;;;;;;10.43;5.13;;;;;;;;;;5063457;28;20830;-66
2023/10/11 10:28:51;;;;;;;15.07;4.70;;;;;;;;;;5058028;28;20239;-66
2023/10/11 10:31:18;;;;;;;14.90;4.80;;;;;;;;;;5062869;28;20732;-66
2023/10/11 10:33:49;;;;;;;12.68;4.85;;;;;;;;;;5064041;28;20488;-66
2023/10/11 10:36:34;;;;;;;16.48;5.22;;;;;;;;;;5063739;28;20610;-66
2023/10/11 10:39:36;;;;;;;13.80;5.47;;;;;;;;;;5064235;28;20219;-66
2023/10/11 10:42:12;;;;;;;11.50;5.20;;;;;;;;;;5063902;28;20730;-66
2023/10/11 10:44:49;;;;;;;14.40;4.82;;;;;;;;;;5063411;28;20235;-66
2023/10/11 10:47:21;;;;;;;19.02;4.93;;;;;;;;;;5063326;28;20353;-66
2023/10/11 10:49:51;;;;;;;15.60;5.20;;;;;;;;;;5063909;28;20216;-66
2023/10/11 10:52:17;;;;;;;15.13;4.47;;;;;;;;;;5063594;28;20227;-66
2023/10/11 10:54:54;;;;;;;12.48;4.40;;;;;;;;;;5063702;28;20237;-66
2023/10/11 10:57:23;;;;;;;18.02;4.65;;;;;;;;;;5063353;28;20669;-65
2023/10/11 10:59:48;;;;;;;12.68;4.72;;;;;;;;;;5063312;28;20257;-64
2023/10/11 11:02:19;;;;;;;11.98;4.90;;;;;;;;;;5062750;28;20306;-64
2023/10/11 11:04:44;;;;;;;22.35;4.80;;;;;;;;;;5062536;28;20231;-64
2023/10/11 11:07:22;;;;;;;15.52;4.68;;;;;;;;;;5062956;28;20600;-66
2023/10/11 11:09:47;;;;;;;14.43;4.55;;;;;;;;;;5062252;28;20214;-66
2023/10/11 11:12:17;;;;;;;9.55;3.90;;;;;;;;;;5062856;28;20204;-66
2023/10/11 11:14:51;;;;;;;13.90;4.68;;;;;;;;;;5056692;28;20302;-65
2023/10/11 11:17:19;;;;;;;13.93;4.05;;;;;;;;;;5062481;28;20616;-65
2023/10/11 11:19:59;;;;;;;11.95;4.13;;;;;;;;;;5062594;28;20617;-65
2023/10/11 11:22:38;;;;;;;20.20;4.30;;;;;;;;;;5063762;28;20203;-65
2023/10/11 11:25:15;;;;;;;20.08;3.85;;;;;;;;;;5063612;28;20215;-65
2023/10/11 11:27:44;;;;;;;15.52;4.28;;;;;;;;;;5063757;28;20663;-65
2023/10/11 11:30:16;;;;;;;15.80;4.25;;;;;;;;;;5063155;28;20378;-65
2023/10/11 11:32:45;;;;;;;13.30;3.95;;;;;;;;;;5063092;28;20698;-66
2023/10/11 11:35:25;;;;;;;11.18;3.53;;;;;;;;;;5061761;28;20330;-66
2023/10/11 11:38:01;;;;;;;11.93;3.53;;;;;;;;;;5062830;28;20277;-66
2023/10/11 11:40:26;;;;;;;16.42;4.05;;;;;;;;;;5063195;28;20207;-65
2023/10/11 11:42:54;;;;;;;16.35;4.00;;;;;;;;;;5064202;28;21100;-65
2023/10/11 11:45:20;;;;;;;12.82;3.80;;;;;;;;;;5063577;28;20224;-66
2023/10/11 11:47:55;;;;;;;13.07;3.90;;;;;;;;;;5064085;28;20204;-67
2023/10/11 11:50:21;;;;;;;13.15;4.05;;;;;;;;;;5061603;28;20207;-65
2023/10/11 11:52:47;;;;;;;12.73;3.60;;;;;;;;;;5062041;28;20556;-65
2023/10/11 11:55:12;;;;;;;13.55;4.10;;;;;;;;;;5063264;28;20219;-66
2023/10/11 11:57:38;;;;;;;10.15;3.60;;;;;;;;;;5065769;28;20250;-65
2023/10/11 12:00:27;;;;;;;12.10;3.42;;;;;;;;;;5058169;28;20204;-65
2023/10/11 12:02:54;;;;;;;12.20;3.50;;;;;;;;;;5064452;28;20210;-65
2023/10/11 12:05:21;;;;;;;15.68;4.05;;;;;;;;;;5055624;28;20223;-65
2023/10/11 12:07:49;;;;;;;10.55;3.95;;;;;;;;;;5061137;28;20497;-66
2023/10/11 12:10:24;;;;;;;13.43;3.67;;;;;;;;;;5063417;28;20204;-67
2023/10/11 12:12:51;;;;;;;18.10;4.10;;;;;;;;;;5060913;28;20719;-68
2023/10/11 12:15:19;;;;;;;12.98;4.13;;;;;;;;;;5065280;28;20329;-66
2023/10/11 12:17:45;;;;;;;14.35;3.85;;;;;;;;;;5061693;28;20221;-66
2023/10/11 12:20:15;;;;;;;16.50;4.18;;;;;;;;;;5047222;28;20657;-66
2023/10/11 12:22:42;;;;;;;11.32;3.60;;;;;;;;;;5061044;28;20650;-65
2023/10/11 12:25:09;;;;;;;8.18;3.70;;;;;;;;;;5054316;28;20543;-67
2023/10/11 12:27:38;;;;;;;15.40;4.13;;;;;;;;;;5054429;28;20219;-67
2023/10/11 12:30:09;;;;;;;13.35;4.28;;;;;;;;;;5055492;28;20216;-67
2023/10/11 12:32:37;;;;;;;12.35;4.03;;;;;;;;;;5068419;28;20588;-65
2023/10/11 12:35:06;;;;;;;9.80;3.80;;;;;;;;;;5056757;28;20205;-66
2023/10/11 12:37:33;;;;;;;9.23;3.58;;;;;;;;;;5067141;28;20229;-66
2023/10/11 12:39:59;;;;;;;16.42;4.03;;;;;;;;;;5063094;28;20201;-66
2023/10/11 12:42:25;;;;;;;15.75;4.43;;;;;;;;;;5057376;28;20560;-66
2023/10/11 12:44:53;;;;;;;9.98;3.33;;;;;;;;;;5064038;28;20212;-66
2023/10/11 12:47:20;;;;;;;14.13;3.53;;;;;;;;;;5058049;28;20208;-64
2023/10/11 12:49:47;;;;;;;12.65;3.88;;;;;;;;;;5056668;28;20262;-64
2023/10/11 12:52:17;;;;;;;11.25;3.70;;;;;;;;;;5063218;28;20227;-65
2023/10/11 12:54:44;;;;;;;10.23;3.63;;;;;;;;;;5065634;28;20288;-65
2023/10/11 12:57:14;;;;;;;10.85;3.42;;;;;;;;;;5066537;28;20231;-65
2023/10/11 12:59:41;;;;;;;9.48;3.95;;;;;;;;;;5068763;28;20202;-65
2023/10/11 13:02:10;;;;;;;9.50;3.53;;;;;;;;;;5062372;28;20613;-65
2023/10/11 13:04:41;;;;;;;10.73;3.28;;;;;;;;;;5050541;28;20296;-65
2023/10/11 13:07:13;;;;;;;11.88;3.60;;;;;;;;;;5051741;28;20235;-65
2023/10/11 13:09:40;;;;;;;6.93;3.55;;;;;;;;;;5063039;28;20747;-65
2023/10/11 13:12:08;;;;;;;14.48;4.53;;;;;;;;;;5059911;28;20231;-65
2023/10/11 13:14:35;;;;;;;6.05;3.67;;;;;;;;;;5057729;28;20520;-65
2023/10/11 13:17:05;;;;;;;13.60;4.55;;;;;;;;;;5050333;28;20231;-65
2023/10/11 13:19:32;;;;;;;14.10;3.90;;;;;;;;;;5065336;28;20210;-66
2023/10/11 13:21:58;;;;;;;12.82;4.10;;;;;;;;;;5058176;28;20229;-65
2023/10/11 13:24:27;;;;;;;10.82;3.80;;;;;;;;;;5065493;28;20263;-65
2023/10/11 13:26:54;;;;;;;12.93;4.10;;;;;;;;;;5064930;28;20592;-65
2023/10/11 13:29:21;;;;;;;9.07;3.92;;;;;;;;;;5065259;28;20200;-65
2023/10/11 13:31:48;;;;;;;15.70;4.20;;;;;;;;;;5069901;28;20208;-65
2023/10/11 13:34:15;;;;;;;7.53;3.92;;;;;;;;;;5053383;28;20217;-65
2023/10/11 13:36:42;;;;;;;14.75;4.22;;;;;;;;;;5057745;28;20311;-65
2023/10/11 13:39:25;;;;;;;11.55;4.18;;;;;;;;;;5065048;28;20687;-65
2023/10/11 13:41:53;;;;;;;13.23;4.18;;;;;;;;;;5050225;28;20208;-65
2023/10/11 13:44:19;;;;;;;10.60;3.70;;;;;;;;;;5063219;28;20242;-65
2023/10/11 13:46:51;;;;;;;11.73;3.20;;;;;;;;;;5054287;28;20228;-65
2023/10/11 13:49:24;;;;;;;9.80;3.47;;;;;;;;;;5052958;28;20212;-65
2023/10/11 13:51:50;;;;;;;9.07;3.00;;;;;;;;;;5059645;28;20211;-65
2023/10/11 13:54:31;;;;;;;12.98;3.22;;;;;;;;;;5059951;28;20223;-65
2023/10/11 13:56:59;;;;;;;10.50;3.00;;;;;;;;;;5063116;28;20224;-66
2023/10/11 13:59:28;;;;;;;7.43;3.30;;;;;;;;;;5062758;28;20339;-67
2023/10/11 14:01:59;;;;;;;8.68;3.22;;;;;;;;;;5068394;28;20230;-68
2023/10/11 14:04:47;;;;;;;7.97;3.17;;;;;;;;;;5064964;28;20269;-67
2023/10/11 14:07:22;;;;;;;5.25;2.85;;;;;;;;;;5057992;28;20576;-67
2023/10/11 14:09:53;;;;;;;6.32;2.97;;;;;;;;;;5060895;28;20210;-67
2023/10/11 14:12:23;;;;;;;11.98;3.63;;;;;;;;;;5065997;28;20208;-67
2023/10/11 14:14:50;;;;;;;10.77;4.07;;;;;;;;;;5067272;28;20204;-66
2023/10/11 14:17:16;;;;;;;6.30;3.08;;;;;;;;;;5064374;28;20207;-67
2023/10/11 14:19:45;;;;;;;13.68;3.42;;;;;;;;;;5065193;28;20220;-67
2023/10/11 14:22:11;;;;;;;9.15;3.20;;;;;;;;;;5067874;28;20253;-67
2023/10/11 14:24:38;;;;;;;10.52;3.38;;;;;;;;;;5066548;28;20204;-66
2023/10/11 14:27:04;;;;;;;13.82;3.03;;;;;;;;;;5066581;28;20220;-67
2023/10/11 14:29:32;;;;;;;8.68;3.40;;;;;;;;;;5062968;28;20245;-66
2023/10/11 14:31:58;;;;;;;8.65;3.03;;;;;;;;;;5065556;28;20296;-66
2023/10/11 14:34:25;;;;;;;8.00;3.33;;;;;;;;;;5064149;28;20219;-66
2023/10/11 14:36:51;;;;;;;8.18;3.28;;;;;;;;;;5062763;28;20220;-65
2023/10/11 14:39:22;;;;;;;9.82;3.42;;;;;;;;;;5064802;28;20235;-67
2023/10/11 14:41:50;;;;;;;11.63;3.08;;;;;;;;;;5048842;28;20208;-66
2023/10/11 14:44:16;;;;;;;10.38;2.90;;;;;;;;;;5049196;28;20211;-65
2023/10/11 14:46:47;;;;;;;11.48;3.22;;;;;;;;;;5054408;28;20225;-64
2023/10/11 14:49:13;;;;;;;7.82;3.42;;;;;;;;;;5049098;28;20200;-64
2023/10/11 14:51:39;;;;;;;7.68;2.88;;;;;;;;;;5047788;28;20215;-64
2023/10/11 14:54:06;;;;;;;9.25;3.17;;;;;;;;;;5048822;28;20742;-64
2023/10/11 14:56:32;;;;;;;11.25;3.08;;;;;;;;;;5050306;28;20224;-65
2023/10/11 14:59:01;;;;;;;10.18;2.95;;;;;;;;;;5071710;28;20215;-65
2023/10/11 15:01:27;;;;;;;7.82;3.17;;;;;;;;;;5071911;28;20208;-65
2023/10/11 15:04:00;;;;;;;10.73;2.83;;;;;;;;;;5072567;28;20196;-65
2023/10/11 15:06:26;;;;;;;9.73;2.95;;;;;;;;;;5072256;28;20224;-65
2023/10/11 15:08:53;;;;;;;8.65;3.15;;;;;;;;;;5072877;28;20200;-65